Time;durP1;ratioP1;P1;durP2;ratioP2;P2;SDS_P1;SDS_P2;PMS_P1;PMS_P2;Temp;Humidity;BMP_temperature;BMP_pressure;BME280_temperature;BME280_humidity;BME280_pressure;Samples;Min_cycle;Max_cycle;Signal;HPM_P1;HPM_P2
2023/05/25 00:00:45;;;;;;;;;;;10.20;99.90;;;;;;4901101;29;19949;-78
2023/05/25 00:03:11;;;;;;;;;;;10.20;99.90;;;;;;4924350;29;20022;-78
2023/05/25 00:05:37;;;;;;;;;;;10.20;99.90;;;;;;4929050;29;19938;-78
2023/05/25 00:08:02;;;;;;;;;;;10.20;99.90;;;;;;4927589;29;20364;-78
2023/05/25 00:10:28;;;;;;;;;;;10.40;99.90;;;;;;4920394;29;19983;-79
2023/05/25 00:12:55;;;;;;;;;;;10.20;99.90;;;;;;4932258;29;19927;-78
2023/05/25 00:15:21;;;;;;;;;;;10.20;99.90;;;;;;4926676;29;20414;-79
2023/05/25 00:17:47;;;;;;;;;;;10.40;99.90;;;;;;4919944;29;19931;-79
2023/05/25 00:20:13;;;;;;;;;;;10.20;99.90;;;;;;4920416;29;20008;-79
2023/05/25 00:22:43;;;;;;;;;;;10.20;99.90;;;;;;4910724;29;19931;-79
2023/05/25 00:25:09;;;;;;;;;;;10.30;99.90;;;;;;4927139;29;19927;-79
2023/05/25 00:27:35;;;;;;;;;;;10.20;99.90;;;;;;4926358;29;19943;-78
2023/05/25 00:30:00;;;;;;;;;;;10.20;99.90;;;;;;4933206;29;19950;-78
2023/05/25 00:32:26;;;;;;;;;;;10.20;99.90;;;;;;4925172;29;20301;-79
2023/05/25 00:34:52;;;;;;;;;;;10.30;99.90;;;;;;4927016;29;20308;-79
2023/05/25 00:37:18;;;;;;;;;;;10.30;99.90;;;;;;4929662;29;20429;-79
2023/05/25 00:39:43;;;;;;;;;;;10.30;99.90;;;;;;4926902;29;19927;-80
2023/05/25 00:42:09;;;;;;;;;;;10.30;99.90;;;;;;4912996;29;19927;-79
2023/05/25 00:44:35;;;;;;;;;;;10.30;99.90;;;;;;4925634;29;19935;-80
2023/05/25 00:47:02;;;;;;;;;;;10.20;99.90;;;;;;4904797;29;19934;-79
2023/05/25 00:49:29;;;;;;;;;;;10.20;99.90;;;;;;4928209;29;19983;-80
2023/05/25 00:51:56;;;;;;;;;;;10.20;99.90;;;;;;4931403;29;19927;-79
2023/05/25 00:54:22;;;;;;;;;;;10.20;99.90;;;;;;4930854;29;19935;-79
2023/05/25 00:56:54;;;;;;;;;;;10.20;99.90;;;;;;4922867;29;19927;-79
2023/05/25 00:59:35;;;;;;;;;;;10.20;99.90;;;;;;4925256;29;19927;-79
2023/05/25 01:02:02;;;;;;;;;;;10.10;99.90;;;;;;4929575;29;19952;-79
2023/05/25 01:04:28;;;;;;;;;;;10.10;99.90;;;;;;4914569;29;19927;-80
2023/05/25 01:06:56;;;;;;;;;;;10.20;99.90;;;;;;4914561;29;19970;-80
2023/05/25 01:09:23;;;;;;;;;;;10.00;99.90;;;;;;4927999;29;19931;-79
2023/05/25 01:11:50;;;;;;;;;;;10.00;99.90;;;;;;4909904;29;20427;-79
2023/05/25 01:14:20;;;;;;;;;;;10.00;99.90;;;;;;4929692;29;20297;-79
2023/05/25 01:16:46;;;;;;;;;;;9.90;99.90;;;;;;4928968;29;19938;-79
2023/05/25 01:19:12;;;;;;;;;;;9.90;99.90;;;;;;4922744;29;19931;-79
2023/05/25 01:21:40;;;;;;;;;;;10.00;99.90;;;;;;4925559;29;19985;-79
2023/05/25 01:24:31;;;;;;;;;;;9.90;99.90;;;;;;4911338;29;19927;-79
2023/05/25 01:27:15;;;;;;;;;;;9.90;99.90;;;;;;4922772;29;19927;-79
2023/05/25 01:29:41;;;;;;;;;;;9.90;99.90;;;;;;4920648;29;19989;-79
2023/05/25 01:32:07;;;;;;;;;;;9.90;99.90;;;;;;4915360;29;19927;-79
2023/05/25 01:34:33;;;;;;;;;;;9.90;99.90;;;;;;4923095;29;20026;-79
2023/05/25 01:36:59;;;;;;;;;;;9.90;99.90;;;;;;4926723;29;19927;-79
2023/05/25 01:39:24;;;;;;;;;;;9.90;99.90;;;;;;4930218;29;19934;-79
2023/05/25 01:41:50;;;;;;;;;;;9.90;99.90;;;;;;4922104;29;19979;-79
2023/05/25 01:44:16;;;;;;;;;;;9.80;99.90;;;;;;4910020;29;20018;-79
2023/05/25 01:46:41;;;;;;;;;;;9.80;99.90;;;;;;4926362;29;19927;-78
2023/05/25 01:49:12;;;;;;;;;;;9.90;99.90;;;;;;4921302;29;19954;-79
2023/05/25 01:51:42;;;;;;;;;;;9.90;99.90;;;;;;4928077;29;19989;-79
2023/05/25 01:54:11;;;;;;;;;;;9.90;99.90;;;;;;4931234;29;19927;-79
2023/05/25 01:56:37;;;;;;;;;;;9.90;99.90;;;;;;4927811;29;19927;-79
2023/05/25 01:59:03;;;;;;;;;;;10.00;99.90;;;;;;4921892;29;19931;-79
2023/05/25 02:01:29;;;;;;;;;;;10.00;99.90;;;;;;4905784;29;19991;-79
2023/05/25 02:03:55;;;;;;;;;;;10.90;99.90;;;;;;4909691;29;19928;-79
2023/05/25 02:06:21;;;;;;;;;;;10.00;99.90;;;;;;4911227;29;20063;-79
2023/05/25 02:08:46;;;;;;;;;;;9.90;99.90;;;;;;4908433;29;19931;-79
2023/05/25 02:11:13;;;;;;;;;;;9.90;99.90;;;;;;4912962;29;19937;-79
2023/05/25 02:13:39;;;;;;;;;;;9.90;99.90;;;;;;4925803;29;19931;-79
2023/05/25 02:16:05;;;;;;;;;;;9.90;99.90;;;;;;4924754;29;19978;-79
2023/05/25 02:18:31;;;;;;;;;;;9.90;99.90;;;;;;4924619;29;19927;-79
2023/05/25 02:20:56;;;;;;;;;;;9.90;99.90;;;;;;4932325;29;19934;-79
2023/05/25 02:23:22;;;;;;;;;;;9.90;99.90;;;;;;4932015;29;19931;-79
2023/05/25 02:25:47;;;;;;;;;;;9.90;99.90;;;;;;4889949;29;19927;-79
2023/05/25 02:28:13;;;;;;;;;;;9.80;99.90;;;;;;4909415;29;19927;-79
2023/05/25 02:30:39;;;;;;;;;;;9.80;99.90;;;;;;4930172;29;19934;-79
2023/05/25 02:33:05;;;;;;;;;;;9.70;99.90;;;;;;4927363;29;19927;-79
2023/05/25 02:35:31;;;;;;;;;;;9.60;99.90;;;;;;4924588;29;19930;-79
2023/05/25 02:37:56;;;;;;;;;;;9.70;99.90;;;;;;4930433;29;20018;-79
2023/05/25 02:40:22;;;;;;;;;;;9.60;99.90;;;;;;4919070;29;19931;-79
2023/05/25 02:42:48;;;;;;;;;;;9.60;99.90;;;;;;4924942;29;19935;-80
2023/05/25 02:45:14;;;;;;;;;;;9.50;99.90;;;;;;4904922;29;19927;-78
2023/05/25 02:47:39;;;;;;;;;;;9.50;99.90;;;;;;4914302;29;20289;-79
2023/05/25 02:50:05;;;;;;;;;;;9.50;99.90;;;;;;4902285;29;19934;-79
2023/05/25 02:52:31;;;;;;;;;;;9.50;99.90;;;;;;4919679;29;19927;-79
2023/05/25 02:54:57;;;;;;;;;;;9.50;99.90;;;;;;4917757;29;20278;-78
2023/05/25 02:57:22;;;;;;;;;;;9.50;99.90;;;;;;4900610;29;19979;-79
2023/05/25 02:59:48;;;;;;;;;;;9.50;99.90;;;;;;4918076;29;19927;-78
2023/05/25 03:02:14;;;;;;;;;;;9.60;99.90;;;;;;4913799;29;20285;-78
2023/05/25 03:04:40;;;;;;;;;;;9.60;99.90;;;;;;4919137;29;19934;-78
2023/05/25 03:07:06;;;;;;;;;;;9.60;99.90;;;;;;4918309;29;19934;-78
2023/05/25 03:09:31;;;;;;;;;;;9.50;99.90;;;;;;4903561;29;19931;-78
2023/05/25 03:11:57;;;;;;;;;;;9.60;99.90;;;;;;4905720;29;20007;-78
2023/05/25 03:14:22;;;;;;;;;;;9.50;99.90;;;;;;4915718;29;19927;-78
2023/05/25 03:16:48;;;;;;;;;;;9.50;99.90;;;;;;4919112;29;19934;-79
2023/05/25 03:19:13;;;;;;;;;;;9.50;99.90;;;;;;4911118;29;19927;-79
2023/05/25 03:21:39;;;;;;;;;;;9.50;99.90;;;;;;4917170;29;19927;-79
2023/05/25 03:24:05;;;;;;;;;;;9.50;99.90;;;;;;4910358;29;19927;-79
2023/05/25 03:26:31;;;;;;;;;;;9.50;99.90;;;;;;4921363;29;20028;-79
2023/05/25 03:28:56;;;;;;;;;;;9.40;99.90;;;;;;4918488;29;20151;-79
2023/05/25 03:31:22;;;;;;;;;;;9.40;99.90;;;;;;4924593;29;19931;-79
2023/05/25 03:33:47;;;;;;;;;;;9.40;99.90;;;;;;4908509;29;19935;-79
2023/05/25 03:36:16;;;;;;;;;;;9.40;99.90;;;;;;4917933;29;19934;-79
2023/05/25 03:38:42;;;;;;;;;;;9.40;99.90;;;;;;4913246;29;19934;-79
2023/05/25 03:41:07;;;;;;;;;;;9.50;99.90;;;;;;4920275;29;19927;-79
2023/05/25 03:43:33;;;;;;;;;;;9.60;99.90;;;;;;4919527;29;20305;-79
2023/05/25 03:45:58;;;;;;;;;;;9.70;99.90;;;;;;4922701;29;19927;-79
2023/05/25 03:48:24;;;;;;;;;;;9.70;99.90;;;;;;4922901;29;19927;-79
2023/05/25 03:50:50;;;;;;;;;;;9.70;99.90;;;;;;4903112;29;19982;-79
2023/05/25 03:53:15;;;;;;;;;;;9.80;99.90;;;;;;4924856;29;19951;-80
2023/05/25 03:55:41;;;;;;;;;;;9.80;99.90;;;;;;4920716;29;19928;-79
2023/05/25 03:58:08;;;;;;;;;;;9.80;99.90;;;;;;4927350;29;19927;-79
2023/05/25 04:00:35;;;;;;;;;;;9.80;99.90;;;;;;4930032;29;19979;-79
2023/05/25 04:03:00;;;;;;;;;;;9.90;99.90;;;;;;4923734;29;19927;-79
2023/05/25 04:05:26;;;;;;;;;;;9.90;99.90;;;;;;4921185;29;19927;-78
2023/05/25 04:07:52;;;;;;;;;;;9.90;99.90;;;;;;4901219;29;19931;-79
2023/05/25 04:10:17;;;;;;;;;;;9.90;99.90;;;;;;4919235;29;20012;-79
2023/05/25 04:12:43;;;;;;;;;;;9.90;99.90;;;;;;4924674;29;19938;-79
2023/05/25 04:15:08;;;;;;;;;;;10.20;99.90;;;;;;4918801;29;19958;-79
2023/05/25 04:17:34;;;;;;;;;;;9.90;99.90;;;;;;4916750;29;19927;-79
2023/05/25 04:20:01;;;;;;;;;;;9.90;99.90;;;;;;4908912;29;19962;-79
2023/05/25 04:22:26;;;;;;;;;;;9.90;99.90;;;;;;4905357;29;19927;-79
2023/05/25 04:24:55;;;;;;;;;;;9.80;99.90;;;;;;4935877;29;19927;-79
2023/05/25 04:27:21;;;;;;;;;;;9.90;99.90;;;;;;4923941;29;19927;-79
2023/05/25 04:29:48;;;;;;;;;;;9.90;99.90;;;;;;4918868;29;19927;-79
2023/05/25 04:32:16;;;;;;;;;;;9.90;99.90;;;;;;4923226;29;19927;-79
2023/05/25 04:34:43;;;;;;;;;;;9.90;99.90;;;;;;4924135;29;20331;-80
2023/05/25 04:37:09;;;;;;;;;;;10.00;99.90;;;;;;4922493;29;19933;-79
2023/05/25 04:39:34;;;;;;;;;;;10.00;99.90;;;;;;4903182;29;19927;-79
2023/05/25 04:42:03;;;;;;;;;;;10.10;99.90;;;;;;4903118;29;19934;-79
2023/05/25 04:44:29;;;;;;;;;;;10.10;99.90;;;;;;4919020;29;19965;-79
2023/05/25 04:46:54;;;;;;;;;;;10.10;99.90;;;;;;4910101;29;19994;-79
2023/05/25 04:49:20;;;;;;;;;;;10.20;99.90;;;;;;4925886;29;19974;-79
2023/05/25 04:51:46;;;;;;;;;;;10.20;99.90;;;;;;4911674;29;19934;-79
2023/05/25 04:54:11;;;;;;;;;;;10.30;99.90;;;;;;4908003;29;19932;-79
2023/05/25 04:56:36;;;;;;;;;;;10.40;99.90;;;;;;4923639;29;20010;-79
2023/05/25 04:59:03;;;;;;;;;;;10.40;99.90;;;;;;4921539;29;19938;-78
2023/05/25 05:01:29;;;;;;;;;;;10.60;99.90;;;;;;4926327;29;19951;-78
2023/05/25 05:03:55;;;;;;;;;;;10.80;99.90;;;;;;4919403;29;19931;-78
2023/05/25 05:06:21;;;;;;;;;;;10.90;99.90;;;;;;4898229;29;19979;-79
2023/05/25 05:08:46;;;;;;;;;;;11.00;99.90;;;;;;4915300;29;19938;-78
2023/05/25 05:11:12;;;;;;;;;;;11.00;99.90;;;;;;4918389;29;19931;-78
2023/05/25 05:13:38;;;;;;;;;;;11.10;99.90;;;;;;4905866;29;19927;-78
2023/05/25 05:16:03;;;;;;;;;;;11.20;99.90;;;;;;4922241;29;19951;-81
2023/05/25 05:18:29;;;;;;;;;;;11.40;99.90;;;;;;4928414;29;19990;-79
2023/05/25 05:20:55;;;;;;;;;;;11.50;99.90;;;;;;4928892;29;19932;-79
2023/05/25 05:23:20;;;;;;;;;;;11.70;99.90;;;;;;4926874;29;19938;-79
2023/05/25 05:25:46;;;;;;;;;;;11.50;99.90;;;;;;4927000;29;19927;-79
2023/05/25 05:28:11;;;;;;;;;;;11.50;99.90;;;;;;4924840;29;19942;-79
2023/05/25 05:30:37;;;;;;;;;;;11.60;99.90;;;;;;4930726;29;19931;-80
2023/05/25 05:33:02;;;;;;;;;;;11.60;99.90;;;;;;4935195;29;19927;-80
2023/05/25 05:35:28;;;;;;;;;;;11.70;99.90;;;;;;4929686;29;19994;-81
2023/05/25 05:37:53;;;;;;;;;;;12.10;99.90;;;;;;4902607;29;19954;-80
2023/05/25 05:40:19;;;;;;;;;;;11.80;99.90;;;;;;4924493;29;19924;-78
2023/05/25 05:42:45;;;;;;;;;;;11.80;99.90;;;;;;4928820;29;19963;-79
2023/05/25 05:45:10;;;;;;;;;;;11.90;99.90;;;;;;4917673;29;19927;-81
2023/05/25 05:47:36;;;;;;;;;;;12.00;99.90;;;;;;4912681;29;19927;-79
2023/05/25 05:50:02;;;;;;;;;;;12.10;99.90;;;;;;4932924;29;19931;-81
2023/05/25 05:52:28;;;;;;;;;;;12.10;99.90;;;;;;4934118;29;19911;-81
2023/05/25 05:54:53;;;;;;;;;;;12.30;99.90;;;;;;4935218;29;19934;-81
2023/05/25 05:57:19;;;;;;;;;;;12.20;99.90;;;;;;4930471;29;19934;-81
2023/05/25 05:59:45;;;;;;;;;;;12.30;99.90;;;;;;4932878;29;19934;-80
2023/05/25 06:02:10;;;;;;;;;;;12.30;99.90;;;;;;4932429;29;19958;-80
2023/05/25 06:04:37;;;;;;;;;;;12.30;99.90;;;;;;4906483;29;19931;-79
2023/05/25 06:07:02;;;;;;;;;;;12.40;99.90;;;;;;4920709;29;19927;-78
2023/05/25 06:09:28;;;;;;;;;;;12.40;99.90;;;;;;4907460;29;20347;-80
2023/05/25 06:11:53;;;;;;;;;;;12.40;99.90;;;;;;4911800;29;19928;-79
2023/05/25 06:14:19;;;;;;;;;;;12.50;99.90;;;;;;4908043;29;19928;-79
2023/05/25 06:16:45;;;;;;;;;;;12.50;99.90;;;;;;4910339;29;20401;-79
2023/05/25 06:19:10;;;;;;;;;;;12.90;99.90;;;;;;4880328;29;20014;-81
2023/05/25 06:21:36;;;;;;;;;;;12.60;99.90;;;;;;4910428;29;19927;-80
2023/05/25 06:24:02;;;;;;;;;;;12.60;99.90;;;;;;4909423;29;19927;-80
2023/05/25 06:26:27;;;;;;;;;;;12.60;99.90;;;;;;4902782;29;19931;-78
2023/05/25 06:28:53;;;;;;;;;;;12.70;99.90;;;;;;4899632;29;19928;-79
2023/05/25 06:31:18;;;;;;;;;;;12.70;99.90;;;;;;4878910;29;19979;-79
2023/05/25 06:33:44;;;;;;;;;;;12.80;99.90;;;;;;4903841;29;19927;-79
2023/05/25 06:36:10;;;;;;;;;;;12.80;99.90;;;;;;4907363;29;19994;-80
2023/05/25 06:38:36;;;;;;;;;;;12.90;99.90;;;;;;4885984;29;19927;-78
2023/05/25 06:41:03;;;;;;;;;;;12.80;99.90;;;;;;4899774;29;19936;-79
2023/05/25 06:43:30;;;;;;;;;;;12.80;99.90;;;;;;4901066;29;19931;-80
2023/05/25 06:45:56;;;;;;;;;;;13.00;99.90;;;;;;4882249;29;19959;-79
2023/05/25 06:48:22;;;;;;;;;;;13.10;99.90;;;;;;4897953;29;20087;-78
2023/05/25 06:50:47;;;;;;;;;;;13.10;99.90;;;;;;4895971;29;19931;-79
2023/05/25 06:53:13;;;;;;;;;;;13.10;99.90;;;;;;4882830;29;19927;-78
2023/05/25 06:55:38;;;;;;;;;;;13.20;99.90;;;;;;4898873;29;19928;-79
2023/05/25 06:58:04;;;;;;;;;;;13.70;99.90;;;;;;4884712;29;19942;-80
2023/05/25 07:00:29;;;;;;;;;;;13.40;99.90;;;;;;4898890;29;19967;-80
2023/05/25 07:02:55;;;;;;;;;;;13.40;99.90;;;;;;4902159;29;19934;-79
2023/05/25 07:05:20;;;;;;;;;;;13.30;99.90;;;;;;4904136;29;19927;-80
2023/05/25 07:07:46;;;;;;;;;;;13.20;99.90;;;;;;4910052;29;19946;-80
2023/05/25 07:10:11;;;;;;;;;;;13.20;99.90;;;;;;4916034;29;19931;-77
2023/05/25 07:12:37;;;;;;;;;;;13.10;99.90;;;;;;4902630;29;19931;-79
2023/05/25 07:15:02;;;;;;;;;;;13.20;99.90;;;;;;4921353;29;19938;-79
2023/05/25 07:17:30;;;;;;;;;;;13.30;99.90;;;;;;4884780;29;19966;-79
2023/05/25 07:19:55;;;;;;;;;;;13.30;99.90;;;;;;4923181;29;19935;-80
2023/05/25 07:22:22;;;;;;;;;;;13.50;99.90;;;;;;4921739;29;19933;-80
2023/05/25 07:24:48;;;;;;;;;;;13.40;99.90;;;;;;4923269;29;20309;-79
2023/05/25 07:27:13;;;;;;;;;;;13.40;99.90;;;;;;4907462;29;19927;-80
2023/05/25 07:29:39;;;;;;;;;;;13.50;99.90;;;;;;4925397;29;19927;-80
2023/05/25 07:32:06;;;;;;;;;;;13.70;99.90;;;;;;4908330;29;19970;-79
2023/05/25 07:34:32;;;;;;;;;;;13.80;99.90;;;;;;4911974;29;19927;-80
2023/05/25 07:36:58;;;;;;;;;;;13.90;99.90;;;;;;4906883;29;19927;-79
2023/05/25 07:39:23;;;;;;;;;;;13.70;99.90;;;;;;4924242;29;19998;-79
2023/05/25 07:41:49;;;;;;;;;;;13.70;99.90;;;;;;4924702;29;20405;-79
2023/05/25 07:44:14;;;;;;;;;;;13.70;99.90;;;;;;4926751;29;19927;-78
2023/05/25 07:46:40;;;;;;;;;;;13.90;99.90;;;;;;4928605;29;19927;-80
2023/05/25 07:49:10;;;;;;;;;;;13.50;99.90;;;;;;4928727;29;19927;-80
2023/05/25 07:51:36;;;;;;;;;;;14.30;99.90;;;;;;4917740;29;20036;-79
2023/05/25 07:54:01;;;;;;;;;;;13.70;99.90;;;;;;4903926;29;20297;-79
2023/05/25 07:56:27;;;;;;;;;;;13.40;99.90;;;;;;4907543;29;19923;-79
2023/05/25 07:58:53;;;;;;;;;;;13.40;99.90;;;;;;4924499;29;19935;-80
2023/05/25 08:01:18;;;;;;;;;;;13.70;99.90;;;;;;4896222;29;20030;-80
2023/05/25 08:03:44;;;;;;;;;;;13.80;99.90;;;;;;4918427;29;19956;-79
2023/05/25 08:06:09;;;;;;;;;;;13.90;99.90;;;;;;4927288;29;19927;-80
2023/05/25 08:08:36;;;;;;;;;;;14.10;99.90;;;;;;4925458;29;19927;-81
2023/05/25 08:11:01;;;;;;;;;;;14.30;99.90;;;;;;4921430;29;20022;-80
2023/05/25 08:13:27;;;;;;;;;;;14.40;99.90;;;;;;4915283;29;19996;-79
2023/05/25 08:15:52;;;;;;;;;;;14.50;99.90;;;;;;4920516;29;19974;-80
2023/05/25 08:18:18;;;;;;;;;;;14.70;99.90;;;;;;4917899;29;19935;-79
2023/05/25 08:20:45;;;;;;;;;;;14.80;99.90;;;;;;4906919;29;19927;-80
2023/05/25 08:23:10;;;;;;;;;;;14.70;99.90;;;;;;4922349;29;20270;-80
2023/05/25 08:25:36;;;;;;;;;;;14.60;99.90;;;;;;4939543;29;19938;-80
2023/05/25 08:28:01;;;;;;;;;;;14.60;99.90;;;;;;4930301;29;20422;-80
2023/05/25 08:30:27;;;;;;;;;;;14.50;99.90;;;;;;4901070;29;20067;-79
2023/05/25 08:32:53;;;;;;;;;;;14.70;99.90;;;;;;4906640;29;20010;-79
2023/05/25 08:35:18;;;;;;;;;;;14.60;99.90;;;;;;4924904;29;19966;-79
2023/05/25 08:37:44;;;;;;;;;;;14.70;99.90;;;;;;4923008;29;20397;-79
2023/05/25 08:40:14;;;;;;;;;;;14.60;99.90;;;;;;4924270;29;20026;-80
2023/05/25 08:42:44;;;;;;;;;;;14.90;99.90;;;;;;4908830;29;19930;-79
2023/05/25 08:45:09;;;;;;;;;;;15.20;99.90;;;;;;4894115;29;19927;-79
2023/05/25 08:47:39;;;;;;;;;;;15.50;99.90;;;;;;4926739;29;19927;-80
2023/05/25 08:50:07;;;;;;;;;;;15.70;99.90;;;;;;4920706;29;19927;-80
2023/05/25 08:52:34;;;;;;;;;;;15.70;99.90;;;;;;4929349;29;19938;-80
2023/05/25 08:55:02;;;;;;;;;;;15.70;99.90;;;;;;4932291;29;20010;-79
2023/05/25 08:57:30;;;;;;;;;;;15.40;99.90;;;;;;4936233;29;19966;-80
2023/05/25 09:00:02;;;;;;;;;;;15.30;99.90;;;;;;4925474;29;19927;-80
2023/05/25 09:02:31;;;;;;;;;;;15.40;99.90;;;;;;4930566;29;19927;-80
2023/05/25 09:04:57;;;;;;;;;;;15.40;99.90;;;;;;4897140;29;19927;-80
2023/05/25 09:07:23;;;;;;;;;;;15.20;99.90;;;;;;4923429;29;19970;-79
2023/05/25 09:09:49;;;;;;;;;;;15.00;99.90;;;;;;4915665;29;20393;-80
2023/05/25 09:12:14;;;;;;;;;;;15.00;99.90;;;;;;4895688;29;19927;-79
2023/05/25 09:14:49;;;;;;;;;;;15.10;99.90;;;;;;4893860;29;19959;-80
2023/05/25 09:17:15;;;;;;;;;;;15.20;99.90;;;;;;4916504;29;19967;-80
2023/05/25 09:19:41;;;;;;;;;;;15.20;99.90;;;;;;4927426;29;20017;-80
2023/05/25 09:22:06;;;;;;;;;;;15.00;99.90;;;;;;4908002;29;20520;-80
2023/05/25 09:24:33;;;;;;;;;;;14.90;99.90;;;;;;4923580;29;19931;-78
2023/05/25 09:26:58;;;;;;;;;;;14.90;99.90;;;;;;4912016;29;19927;-79
2023/05/25 09:29:25;;;;;;;;;;;14.90;99.90;;;;;;4927424;29;20003;-80
2023/05/25 09:31:50;;;;;;;;;;;14.80;99.90;;;;;;4913289;29;19938;-79
2023/05/25 09:34:16;;;;;;;;;;;14.80;99.90;;;;;;4892004;29;19927;-81
2023/05/25 09:36:42;;;;;;;;;;;15.00;99.90;;;;;;4923096;29;20014;-78
2023/05/25 09:39:11;;;;;;;;;;;15.10;99.90;;;;;;4902683;29;19936;-79
2023/05/25 09:41:36;;;;;;;;;;;15.20;99.90;;;;;;4923057;29;19927;-78
2023/05/25 09:44:05;;;;;;;;;;;15.30;99.90;;;;;;4912444;29;20389;-79
2023/05/25 09:46:35;;;;;;;;;;;15.40;99.90;;;;;;4910347;29;19927;-80
2023/05/25 09:49:01;;;;;;;;;;;15.50;99.90;;;;;;4902445;29;20441;-79
2023/05/25 09:51:27;;;;;;;;;;;15.50;99.90;;;;;;4889541;29;19939;-80
2023/05/25 09:53:53;;;;;;;;;;;15.40;99.90;;;;;;4921900;29;19927;-79
2023/05/25 09:56:20;;;;;;;;;;;15.10;99.90;;;;;;4920323;29;19975;-79
2023/05/25 09:58:46;;;;;;;;;;;14.90;99.90;;;;;;4921624;29;19927;-79
2023/05/25 10:01:11;;;;;;;;;;;14.80;99.90;;;;;;4923508;29;19939;-78
2023/05/25 10:03:55;;;;;;;;;;;14.90;99.90;;;;;;4933463;29;19927;-79
2023/05/25 10:06:21;;;;;;;;;;;14.80;99.90;;;;;;4924096;29;19934;-80
2023/05/25 10:08:48;;;;;;;;;;;14.90;99.90;;;;;;4926569;29;19927;-80
2023/05/25 10:11:14;;;;;;;;;;;14.90;99.90;;;;;;4929566;29;19974;-78
2023/05/25 10:13:43;;;;;;;;;;;15.10;99.90;;;;;;4919917;29;19928;-79
2023/05/25 10:16:11;;;;;;;;;;;15.20;99.90;;;;;;4877363;29;19927;-79
2023/05/25 10:18:42;;;;;;;;;;;15.20;99.90;;;;;;4906527;29;20424;-79
2023/05/25 10:21:08;;;;;;;;;;;15.00;99.90;;;;;;4924897;29;19951;-79
2023/05/25 10:23:40;;;;;;;;;;;14.90;99.90;;;;;;4920909;29;20017;-80
2023/05/25 10:26:06;;;;;;;;;;;14.70;99.90;;;;;;4924167;29;20344;-79
2023/05/25 10:28:36;;;;;;;;;;;14.90;99.90;;;;;;4926205;29;19994;-80
2023/05/25 10:31:02;;;;;;;;;;;15.10;99.90;;;;;;4932174;29;19949;-79
2023/05/25 10:33:28;;;;;;;;;;;15.00;99.90;;;;;;4931584;29;19928;-80
2023/05/25 10:35:54;;;;;;;;;;;14.90;99.90;;;;;;4909062;29;19927;-79
2023/05/25 10:38:21;;;;;;;;;;;14.70;99.90;;;;;;4909485;29;20345;-80
2023/05/25 10:40:49;;;;;;;;;;;14.70;99.90;;;;;;4926114;29;19927;-81
2023/05/25 10:43:16;;;;;;;;;;;14.60;99.90;;;;;;4909928;29;19927;-79
2023/05/25 10:45:42;;;;;;;;;;;14.70;99.90;;;;;;4922993;29;19927;-79
2023/05/25 10:48:08;;;;;;;;;;;15.00;99.90;;;;;;4923078;29;20437;-80
2023/05/25 10:50:34;;;;;;;;;;;15.00;99.90;;;;;;4893815;29;19927;-80
2023/05/25 10:53:00;;;;;;;;;;;15.00;99.90;;;;;;4922739;29;19938;-80
2023/05/25 10:55:30;;;;;;;;;;;15.10;99.90;;;;;;4924670;29;20331;-80
2023/05/25 10:58:12;;;;;;;;;;;15.10;99.90;;;;;;4923795;29;19958;-80
2023/05/25 11:00:38;;;;;;;;;;;15.20;99.90;;;;;;4913981;29;19927;-80
2023/05/25 11:03:04;;;;;;;;;;;15.60;99.90;;;;;;4905168;29;19934;-78
2023/05/25 11:05:31;;;;;;;;;;;15.80;99.90;;;;;;4925587;29;19970;-80
2023/05/25 11:07:57;;;;;;;;;;;15.80;99.90;;;;;;4915915;29;19931;-79
2023/05/25 11:10:52;;;;;;;;;;;15.60;99.90;;;;;;4899589;29;20350;-79
2023/05/25 11:13:30;;;;;;;;;;;15.60;99.90;;;;;;4854710;29;19928;-79
2023/05/25 11:16:16;;;;;;;;;;;15.70;99.90;;;;;;4899932;29;19934;-80
2023/05/25 11:18:48;;;;;;;;;;;15.70;99.90;;;;;;4875043;29;19928;-80
2023/05/25 11:21:15;;;;;;;;;;;15.90;99.60;;;;;;4893818;29;19975;-80
2023/05/25 11:23:53;;;;;;;;;;;15.90;99.90;;;;;;4909407;29;19927;-79
2023/05/25 11:26:21;;;;;;;;;;;16.00;99.90;;;;;;4891870;29;19927;-80
2023/05/25 11:28:46;;;;;;;;;;;16.00;99.90;;;;;;4897105;29;19983;-80
2023/05/25 11:31:12;;;;;;;;;;;15.80;99.90;;;;;;4892524;29;19931;-79
2023/05/25 11:33:38;;;;;;;;;;;15.40;99.90;;;;;;4892497;29;19927;-80
2023/05/25 11:36:04;;;;;;;;;;;15.30;99.90;;;;;;4912177;29;19936;-80
2023/05/25 11:38:30;;;;;;;;;;;15.20;99.90;;;;;;4896657;29;19978;-80
2023/05/25 11:40:55;;;;;;;;;;;15.10;99.90;;;;;;4913452;29;20487;-80
2023/05/25 11:43:23;;;;;;;;;;;15.00;99.90;;;;;;4908464;29;19967;-79
2023/05/25 11:45:55;;;;;;;;;;;15.10;99.90;;;;;;4911189;29;19928;-79
2023/05/25 11:48:21;;;;;;;;;;;15.30;99.90;;;;;;4907979;29;20038;-79
2023/05/25 11:50:47;;;;;;;;;;;15.60;99.90;;;;;;4888283;29;19984;-80
2023/05/25 11:53:13;;;;;;;;;;;15.70;99.90;;;;;;4891735;29;19931;-80
2023/05/25 11:55:41;;;;;;;;;;;15.70;99.90;;;;;;4892708;29;19927;-80
2023/05/25 11:58:07;;;;;;;;;;;15.70;99.90;;;;;;4912308;29;19986;-79
2023/05/25 12:00:32;;;;;;;;;;;15.50;99.90;;;;;;4896924;29;19932;-79
2023/05/25 12:02:58;;;;;;;;;;;15.30;99.90;;;;;;4914973;29;20326;-79
2023/05/25 12:05:23;;;;;;;;;;;15.20;99.90;;;;;;4879728;29;19991;-80
2023/05/25 12:07:49;;;;;;;;;;;15.20;99.90;;;;;;4923772;29;19987;-79
2023/05/25 12:10:15;;;;;;;;;;;15.20;99.90;;;;;;4933186;29;19926;-79
2023/05/25 12:12:41;;;;;;;;;;;15.20;99.90;;;;;;4912588;29;20002;-79
2023/05/25 12:15:08;;;;;;;;;;;15.30;99.90;;;;;;4899974;29;19923;-80
2023/05/25 12:17:34;;;;;;;;;;;15.40;99.90;;;;;;4928774;29;19927;-80
2023/05/25 12:19:59;;;;;;;;;;;15.30;99.90;;;;;;4898283;29;20296;-80
2023/05/25 12:22:26;;;;;;;;;;;15.40;99.90;;;;;;4928719;29;19931;-81
2023/05/25 12:24:51;;;;;;;;;;;15.70;99.90;;;;;;4894392;29;20021;-80
2023/05/25 12:27:18;;;;;;;;;;;15.80;99.90;;;;;;4930285;29;19934;-81
2023/05/25 12:29:44;;;;;;;;;;;16.00;99.90;;;;;;4931658;29;19927;-81
2023/05/25 12:32:10;;;;;;;;;;;16.10;99.90;;;;;;4911503;29;19983;-81
2023/05/25 12:34:35;;;;;;;;;;;15.90;99.90;;;;;;4924999;29;19927;-79
2023/05/25 12:37:01;;;;;;;;;;;15.90;99.90;;;;;;4896187;29;19931;-80
2023/05/25 12:39:30;;;;;;;;;;;16.10;99.90;;;;;;4912443;29;20259;-79
2023/05/25 12:41:56;;;;;;;;;;;16.40;99.50;;;;;;4918345;29;19942;-79
2023/05/25 12:44:25;;;;;;;;;;;16.20;99.90;;;;;;4902430;29;19952;-80
2023/05/25 12:46:52;;;;;;;;;;;16.00;99.90;;;;;;4930429;29;19927;-79
2023/05/25 12:49:26;;;;;;;;;;;16.00;99.90;;;;;;4929687;29;20007;-81
2023/05/25 12:51:52;;;;;;;;;;;16.10;99.70;;;;;;4910089;29;19931;-79
2023/05/25 12:54:35;;;;;;;;;;;15.90;99.90;;;;;;4898602;29;19978;-79
2023/05/25 12:57:05;;;;;;;;;;;15.80;99.90;;;;;;4917170;29;19934;-80
2023/05/25 12:59:32;;;;;;;;;;;15.70;99.90;;;;;;4909448;29;19931;-80
2023/05/25 13:01:58;;;;;;;;;;;15.50;99.90;;;;;;4926584;29;19934;-80
2023/05/25 13:04:23;;;;;;;;;;;15.50;99.90;;;;;;4905363;29;19927;-79
2023/05/25 13:06:49;;;;;;;;;;;15.70;99.90;;;;;;4924713;29;19927;-80
2023/05/25 13:09:15;;;;;;;;;;;15.50;99.90;;;;;;4914272;29;19927;-80
2023/05/25 13:11:40;;;;;;;;;;;15.70;99.90;;;;;;4914379;29;19927;-79
2023/05/25 13:14:06;;;;;;;;;;;15.90;99.90;;;;;;4904398;29;20309;-79
2023/05/25 13:16:32;;;;;;;;;;;15.80;99.90;;;;;;4917160;29;19962;-80
2023/05/25 13:18:57;;;;;;;;;;;15.80;99.90;;;;;;4927254;29;19934;-79
2023/05/25 13:21:23;;;;;;;;;;;15.80;99.90;;;;;;4930493;29;19922;-79
2023/05/25 13:23:49;;;;;;;;;;;15.90;99.50;;;;;;4912823;29;19974;-79
2023/05/25 13:26:14;;;;;;;;;;;15.90;99.90;;;;;;4936492;29;19927;-79
2023/05/25 13:28:40;;;;;;;;;;;16.20;99.90;;;;;;4915315;29;19927;-79
2023/05/25 13:31:05;;;;;;;;;;;16.30;99.40;;;;;;4933155;29;19927;-80
2023/05/25 13:33:31;;;;;;;;;;;16.10;99.80;;;;;;4932574;29;20299;-80
2023/05/25 13:35:57;;;;;;;;;;;16.10;99.90;;;;;;4934244;29;20408;-79
2023/05/25 13:38:23;;;;;;;;;;;16.40;99.90;;;;;;4934734;29;19938;-80
2023/05/25 13:40:49;;;;;;;;;;;16.40;99.20;;;;;;4929261;29;19933;-78
2023/05/25 13:43:14;;;;;;;;;;;16.10;99.90;;;;;;4932702;29;19966;-80
2023/05/25 13:45:40;;;;;;;;;;;16.20;99.80;;;;;;4918273;29;19959;-81
2023/05/25 13:48:05;;;;;;;;;;;16.40;99.40;;;;;;4899203;29;20408;-78
2023/05/25 13:50:31;;;;;;;;;;;16.60;99.90;;;;;;4936282;29;19938;-80
2023/05/25 13:52:56;;;;;;;;;;;16.70;99.40;;;;;;4911158;29;19927;-80
2023/05/25 13:55:22;;;;;;;;;;;16.60;98.90;;;;;;4893009;29;19934;-80
2023/05/25 13:57:48;;;;;;;;;;;16.40;99.00;;;;;;4936004;29;19935;-80
2023/05/25 14:00:14;;;;;;;;;;;16.30;99.70;;;;;;4930545;29;20302;-80
2023/05/25 14:02:39;;;;;;;;;;;16.40;98.80;;;;;;4929128;29;19933;-80
2023/05/25 14:05:05;;;;;;;;;;;16.60;98.70;;;;;;4935444;29;20093;-80
2023/05/25 14:07:31;;;;;;;;;;;16.30;99.00;;;;;;4915387;29;19927;-79
2023/05/25 14:09:57;;;;;;;;;;;16.20;99.10;;;;;;4933036;29;19931;-79
2023/05/25 14:12:22;;;;;;;;;;;16.00;99.00;;;;;;4935219;29;20405;-80
2023/05/25 14:14:48;;;;;;;;;;;16.20;98.80;;;;;;4935950;29;19934;-80